sensor_id;sensor_type;location;lat;lon;timestamp;temperature;humidity
45535;DHT22;35892;48.798;9.698;2023-02-19T00:01:07;9.80;99.90
45535;DHT22;35892;48.798;9.698;2023-02-19T00:03:35;9.90;99.90
45535;DHT22;35892;48.798;9.698;2023-02-19T00:06:02;9.90;99.90
45535;DHT22;35892;48.798;9.698;2023-02-19T00:08:29;10.00;99.90
45535;DHT22;35892;48.798;9.698;2023-02-19T00:11:01;10.00;99.90
45535;DHT22;35892;48.798;9.698;2023-02-19T00:13:28;9.90;99.90
45535;DHT22;35892;48.798;9.698;2023-02-19T00:15:55;9.90;99.90
45535;DHT22;35892;48.798;9.698;2023-02-19T00:18:24;9.90;99.90
45535;DHT22;35892;48.798;9.698;2023-02-19T00:20:55;9.90;99.90
45535;DHT22;35892;48.798;9.698;2023-02-19T00:23:22;9.90;99.90
45535;DHT22;35892;48.798;9.698;2023-02-19T00:25:54;9.90;99.90
45535;DHT22;35892;48.798;9.698;2023-02-19T00:28:24;9.90;99.90
45535;DHT22;35892;48.798;9.698;2023-02-19T00:30:51;10.00;99.90
45535;DHT22;35892;48.798;9.698;2023-02-19T00:33:20;10.00;99.90
45535;DHT22;35892;48.798;9.698;2023-02-19T00:35:46;10.10;99.90
45535;DHT22;35892;48.798;9.698;2023-02-19T00:38:13;10.10;99.90
45535;DHT22;35892;48.798;9.698;2023-02-19T00:40:40;10.10;99.90
45535;DHT22;35892;48.798;9.698;2023-02-19T00:43:09;10.00;99.90
45535;DHT22;35892;48.798;9.698;2023-02-19T00:45:38;9.90;99.90
45535;DHT22;35892;48.798;9.698;2023-02-19T00:48:07;9.90;99.90
45535;DHT22;35892;48.798;9.698;2023-02-19T00:50:34;9.80;99.90
45535;DHT22;35892;48.798;9.698;2023-02-19T00:53:00;9.80;99.90
45535;DHT22;35892;48.798;9.698;2023-02-19T00:55:29;9.80;99.90
45535;DHT22;35892;48.798;9.698;2023-02-19T00:57:58;9.80;99.90
45535;DHT22;35892;48.798;9.698;2023-02-19T01:00:28;9.70;99.90
45535;DHT22;35892;48.798;9.698;2023-02-19T01:02:54;9.80;99.90
45535;DHT22;35892;48.798;9.698;2023-02-19T01:05:21;9.80;99.90
45535;DHT22;35892;48.798;9.698;2023-02-19T01:07:47;9.80;99.90
45535;DHT22;35892;48.798;9.698;2023-02-19T01:10:14;9.90;99.90
45535;DHT22;35892;48.798;9.698;2023-02-19T01:12:44;9.90;99.90
45535;DHT22;35892;48.798;9.698;2023-02-19T01:15:13;9.80;99.90
45535;DHT22;35892;48.798;9.698;2023-02-19T01:17:40;9.80;99.90
45535;DHT22;35892;48.798;9.698;2023-02-19T01:20:06;9.80;99.90
45535;DHT22;35892;48.798;9.698;2023-02-19T01:22:33;9.80;99.90
45535;DHT22;35892;48.798;9.698;2023-02-19T01:25:00;9.80;99.90
45535;DHT22;35892;48.798;9.698;2023-02-19T01:27:27;9.80;99.90
45535;DHT22;35892;48.798;9.698;2023-02-19T01:29:53;9.90;99.90
45535;DHT22;35892;48.798;9.698;2023-02-19T01:32:20;9.90;99.90
45535;DHT22;35892;48.798;9.698;2023-02-19T01:34:46;9.90;99.90
45535;DHT22;35892;48.798;9.698;2023-02-19T01:37:13;9.80;99.90
45535;DHT22;35892;48.798;9.698;2023-02-19T01:39:40;9.80;99.90
45535;DHT22;35892;48.798;9.698;2023-02-19T01:42:12;9.80;99.90
45535;DHT22;35892;48.798;9.698;2023-02-19T01:47:13;9.70;99.90
45535;DHT22;35892;48.798;9.698;2023-02-19T01:52:11;9.70;99.90
45535;DHT22;35892;48.798;9.698;2023-02-19T01:54:39;9.70;99.90
45535;DHT22;35892;48.798;9.698;2023-02-19T01:57:09;9.70;99.90
45535;DHT22;35892;48.798;9.698;2023-02-19T01:59:37;9.80;99.90
45535;DHT22;35892;48.798;9.698;2023-02-19T02:02:06;9.90;99.90
45535;DHT22;35892;48.798;9.698;2023-02-19T02:04:36;9.90;99.90
45535;DHT22;35892;48.798;9.698;2023-02-19T02:07:03;9.90;99.90
45535;DHT22;35892;48.798;9.698;2023-02-19T02:09:50;9.80;99.90
45535;DHT22;35892;48.798;9.698;2023-02-19T02:12:36;9.80;99.90
45535;DHT22;35892;48.798;9.698;2023-02-19T02:15:02;9.90;99.90
45535;DHT22;35892;48.798;9.698;2023-02-19T02:32:53;10.00;99.90
45535;DHT22;35892;48.798;9.698;2023-02-19T02:35:22;10.00;99.90
45535;DHT22;35892;48.798;9.698;2023-02-19T02:37:51;10.00;99.90
45535;DHT22;35892;48.798;9.698;2023-02-19T02:40:21;9.90;99.90
45535;DHT22;35892;48.798;9.698;2023-02-19T02:42:48;10.00;99.90
45535;DHT22;35892;48.798;9.698;2023-02-19T02:48:14;10.00;99.90
45535;DHT22;35892;48.798;9.698;2023-02-19T02:50:43;10.00;99.90
45535;DHT22;35892;48.798;9.698;2023-02-19T02:53:16;9.90;99.90
45535;DHT22;35892;48.798;9.698;2023-02-19T02:56:01;9.90;99.90
45535;DHT22;35892;48.798;9.698;2023-02-19T02:58:29;9.90;99.90
45535;DHT22;35892;48.798;9.698;2023-02-19T03:00:58;9.90;99.90
45535;DHT22;35892;48.798;9.698;2023-02-19T03:03:46;10.00;99.90
45535;DHT22;35892;48.798;9.698;2023-02-19T03:06:14;10.10;99.90
45535;DHT22;35892;48.798;9.698;2023-02-19T03:09:05;10.10;99.90
45535;DHT22;35892;48.798;9.698;2023-02-19T03:11:31;10.00;99.90
45535;DHT22;35892;48.798;9.698;2023-02-19T03:14:22;9.90;99.90
45535;DHT22;35892;48.798;9.698;2023-02-19T03:20:27;10.00;99.90
45535;DHT22;35892;48.798;9.698;2023-02-19T03:22:56;10.00;99.90
45535;DHT22;35892;48.798;9.698;2023-02-19T03:25:26;9.90;99.90
45535;DHT22;35892;48.798;9.698;2023-02-19T03:28:12;10.00;99.90
45535;DHT22;35892;48.798;9.698;2023-02-19T03:30:42;10.00;99.90
45535;DHT22;35892;48.798;9.698;2023-02-19T03:33:28;9.90;99.90
45535;DHT22;35892;48.798;9.698;2023-02-19T03:35:56;9.90;99.90
45535;DHT22;35892;48.798;9.698;2023-02-19T03:38:39;9.90;99.90
45535;DHT22;35892;48.798;9.698;2023-02-19T03:41:22;10.00;99.90
45535;DHT22;35892;48.798;9.698;2023-02-19T03:46:28;9.90;99.90
45535;DHT22;35892;48.798;9.698;2023-02-19T03:49:03;9.80;99.90
45535;DHT22;35892;48.798;9.698;2023-02-19T03:51:42;9.80;99.90
45535;DHT22;35892;48.798;9.698;2023-02-19T04:02:09;9.80;99.90
45535;DHT22;35892;48.798;9.698;2023-02-19T04:04:38;9.90;99.90
45535;DHT22;35892;48.798;9.698;2023-02-19T04:07:08;9.90;99.90
45535;DHT22;35892;48.798;9.698;2023-02-19T04:09:36;9.80;99.90
45535;DHT22;35892;48.798;9.698;2023-02-19T04:12:04;9.90;99.90
45535;DHT22;35892;48.798;9.698;2023-02-19T04:17:00;9.90;99.90
45535;DHT22;35892;48.798;9.698;2023-02-19T04:19:32;9.80;99.90
45535;DHT22;35892;48.798;9.698;2023-02-19T04:22:00;9.80;99.90
45535;DHT22;35892;48.798;9.698;2023-02-19T04:24:30;9.80;99.90
45535;DHT22;35892;48.798;9.698;2023-02-19T04:26:58;9.70;99.90
45535;DHT22;35892;48.798;9.698;2023-02-19T04:29:25;9.70;99.90
45535;DHT22;35892;48.798;9.698;2023-02-19T04:31:52;9.70;99.90
45535;DHT22;35892;48.798;9.698;2023-02-19T04:34:19;9.70;99.90
45535;DHT22;35892;48.798;9.698;2023-02-19T04:36:48;9.80;99.90
45535;DHT22;35892;48.798;9.698;2023-02-19T04:39:14;9.80;99.90
45535;DHT22;35892;48.798;9.698;2023-02-19T04:41:43;9.70;99.90
45535;DHT22;35892;48.798;9.698;2023-02-19T04:44:12;9.60;99.90
45535;DHT22;35892;48.798;9.698;2023-02-19T04:46:39;9.60;99.90
45535;DHT22;35892;48.798;9.698;2023-02-19T04:49:08;9.60;99.90
45535;DHT22;35892;48.798;9.698;2023-02-19T04:51:35;9.60;99.90
45535;DHT22;35892;48.798;9.698;2023-02-19T04:54:01;9.60;99.90
45535;DHT22;35892;48.798;9.698;2023-02-19T04:56:30;9.70;99.90
45535;DHT22;35892;48.798;9.698;2023-02-19T04:58:57;9.60;99.90
45535;DHT22;35892;48.798;9.698;2023-02-19T05:01:24;9.60;99.90
45535;DHT22;35892;48.798;9.698;2023-02-19T05:03:51;9.60;99.90
45535;DHT22;35892;48.798;9.698;2023-02-19T05:06:18;9.60;99.90
45535;DHT22;35892;48.798;9.698;2023-02-19T05:08:44;9.60;99.90
45535;DHT22;35892;48.798;9.698;2023-02-19T05:11:11;9.60;99.90
45535;DHT22;35892;48.798;9.698;2023-02-19T05:13:38;9.60;99.90
45535;DHT22;35892;48.798;9.698;2023-02-19T05:16:07;9.50;99.90
45535;DHT22;35892;48.798;9.698;2023-02-19T05:18:39;9.40;99.90
45535;DHT22;35892;48.798;9.698;2023-02-19T05:21:06;9.50;99.90
45535;DHT22;35892;48.798;9.698;2023-02-19T05:23:33;9.40;99.90
45535;DHT22;35892;48.798;9.698;2023-02-19T05:26:10;9.40;99.90
45535;DHT22;35892;48.798;9.698;2023-02-19T05:28:37;9.40;99.90
45535;DHT22;35892;48.798;9.698;2023-02-19T05:31:07;9.40;99.90
45535;DHT22;35892;48.798;9.698;2023-02-19T05:33:36;9.40;99.90
45535;DHT22;35892;48.798;9.698;2023-02-19T05:36:07;9.30;99.90
45535;DHT22;35892;48.798;9.698;2023-02-19T05:38:36;9.30;99.90
45535;DHT22;35892;48.798;9.698;2023-02-19T05:41:07;9.30;99.90
45535;DHT22;35892;48.798;9.698;2023-02-19T05:43:34;9.30;99.90
45535;DHT22;35892;48.798;9.698;2023-02-19T05:46:01;9.20;99.90
45535;DHT22;35892;48.798;9.698;2023-02-19T05:48:28;9.20;99.90
45535;DHT22;35892;48.798;9.698;2023-02-19T05:50:59;9.20;99.90
45535;DHT22;35892;48.798;9.698;2023-02-19T05:53:26;9.20;99.90
45535;DHT22;35892;48.798;9.698;2023-02-19T05:55:55;9.20;99.90
45535;DHT22;35892;48.798;9.698;2023-02-19T05:58:22;9.10;99.90
45535;DHT22;35892;48.798;9.698;2023-02-19T06:00:51;9.10;99.90
45535;DHT22;35892;48.798;9.698;2023-02-19T06:03:18;9.10;99.90
45535;DHT22;35892;48.798;9.698;2023-02-19T06:05:47;9.00;99.90
45535;DHT22;35892;48.798;9.698;2023-02-19T06:08:14;9.10;99.90
45535;DHT22;35892;48.798;9.698;2023-02-19T06:10:41;9.10;99.90
45535;DHT22;35892;48.798;9.698;2023-02-19T06:13:08;9.00;99.90
45535;DHT22;35892;48.798;9.698;2023-02-19T06:15:35;9.00;99.90
45535;DHT22;35892;48.798;9.698;2023-02-19T06:18:02;9.10;99.90
45535;DHT22;35892;48.798;9.698;2023-02-19T06:20:31;9.00;99.90
45535;DHT22;35892;48.798;9.698;2023-02-19T06:22:58;9.00;99.90
45535;DHT22;35892;48.798;9.698;2023-02-19T06:25:25;9.00;99.90
45535;DHT22;35892;48.798;9.698;2023-02-19T06:27:52;8.90;99.90
45535;DHT22;35892;48.798;9.698;2023-02-19T06:30:23;8.90;99.90
45535;DHT22;35892;48.798;9.698;2023-02-19T06:32:52;8.90;99.90
45535;DHT22;35892;48.798;9.698;2023-02-19T06:35:19;8.90;99.90
45535;DHT22;35892;48.798;9.698;2023-02-19T06:37:47;8.80;99.90
45535;DHT22;35892;48.798;9.698;2023-02-19T06:40:14;8.90;99.90
45535;DHT22;35892;48.798;9.698;2023-02-19T06:42:40;8.90;99.90
45535;DHT22;35892;48.798;9.698;2023-02-19T06:45:09;8.90;99.90
45535;DHT22;35892;48.798;9.698;2023-02-19T06:47:36;9.10;99.90
45535;DHT22;35892;48.798;9.698;2023-02-19T06:50:03;9.10;99.90
45535;DHT22;35892;48.798;9.698;2023-02-19T06:52:35;9.00;99.90
45535;DHT22;35892;48.798;9.698;2023-02-19T06:55:01;9.00;99.90
45535;DHT22;35892;48.798;9.698;2023-02-19T06:57:28;9.10;99.90
45535;DHT22;35892;48.798;9.698;2023-02-19T06:59:57;9.00;99.90
45535;DHT22;35892;48.798;9.698;2023-02-19T07:02:23;9.00;99.90
45535;DHT22;35892;48.798;9.698;2023-02-19T07:04:52;9.10;99.90
45535;DHT22;35892;48.798;9.698;2023-02-19T07:07:24;9.20;99.90
45535;DHT22;35892;48.798;9.698;2023-02-19T07:09:51;9.20;99.90
45535;DHT22;35892;48.798;9.698;2023-02-19T07:12:17;9.10;99.90
45535;DHT22;35892;48.798;9.698;2023-02-19T07:14:46;9.10;99.90
45535;DHT22;35892;48.798;9.698;2023-02-19T07:17:13;9.10;99.90
45535;DHT22;35892;48.798;9.698;2023-02-19T07:19:40;9.20;99.90
45535;DHT22;35892;48.798;9.698;2023-02-19T07:22:06;9.10;99.90
45535;DHT22;35892;48.798;9.698;2023-02-19T07:24:35;9.00;99.90
45535;DHT22;35892;48.798;9.698;2023-02-19T07:27:04;9.20;99.90
45535;DHT22;35892;48.798;9.698;2023-02-19T07:29:31;9.30;99.90
45535;DHT22;35892;48.798;9.698;2023-02-19T07:31:58;9.30;99.90
45535;DHT22;35892;48.798;9.698;2023-02-19T07:34:24;9.40;99.90
45535;DHT22;35892;48.798;9.698;2023-02-19T07:36:53;9.40;99.90
45535;DHT22;35892;48.798;9.698;2023-02-19T07:39:20;9.40;99.90
45535;DHT22;35892;48.798;9.698;2023-02-19T07:41:46;9.40;99.90
45535;DHT22;35892;48.798;9.698;2023-02-19T07:44:16;9.60;99.90
45535;DHT22;35892;48.798;9.698;2023-02-19T07:46:43;9.60;99.90
45535;DHT22;35892;48.798;9.698;2023-02-19T07:49:09;9.90;99.90
45535;DHT22;35892;48.798;9.698;2023-02-19T07:51:36;9.90;99.90
45535;DHT22;35892;48.798;9.698;2023-02-19T07:54:05;9.90;99.90
45535;DHT22;35892;48.798;9.698;2023-02-19T07:56:33;9.90;99.90
45535;DHT22;35892;48.798;9.698;2023-02-19T07:59:00;9.80;99.90
45535;DHT22;35892;48.798;9.698;2023-02-19T08:01:27;9.80;99.90
45535;DHT22;35892;48.798;9.698;2023-02-19T08:04:12;9.80;99.90
45535;DHT22;35892;48.798;9.698;2023-02-19T08:06:40;9.90;99.90
45535;DHT22;35892;48.798;9.698;2023-02-19T08:09:07;9.80;99.90
45535;DHT22;35892;48.798;9.698;2023-02-19T08:11:36;9.80;99.90
45535;DHT22;35892;48.798;9.698;2023-02-19T08:14:27;9.90;99.90
45535;DHT22;35892;48.798;9.698;2023-02-19T08:16:54;9.90;99.90
45535;DHT22;35892;48.798;9.698;2023-02-19T08:19:21;9.90;99.90
45535;DHT22;35892;48.798;9.698;2023-02-19T08:21:50;10.00;99.90
45535;DHT22;35892;48.798;9.698;2023-02-19T08:24:17;10.00;99.90
45535;DHT22;35892;48.798;9.698;2023-02-19T08:26:43;10.00;99.90
45535;DHT22;35892;48.798;9.698;2023-02-19T08:29:10;10.10;99.90
45535;DHT22;35892;48.798;9.698;2023-02-19T08:31:37;10.10;99.90
45535;DHT22;35892;48.798;9.698;2023-02-19T08:34:03;10.10;99.90
45535;DHT22;35892;48.798;9.698;2023-02-19T08:36:30;10.20;99.90
45535;DHT22;35892;48.798;9.698;2023-02-19T08:38:57;10.20;99.90
45535;DHT22;35892;48.798;9.698;2023-02-19T08:41:23;10.20;99.90
45535;DHT22;35892;48.798;9.698;2023-02-19T08:43:50;10.30;99.90
45535;DHT22;35892;48.798;9.698;2023-02-19T08:46:17;10.30;99.90
45535;DHT22;35892;48.798;9.698;2023-02-19T08:48:46;10.40;99.90
45535;DHT22;35892;48.798;9.698;2023-02-19T08:51:12;10.50;99.90
45535;DHT22;35892;48.798;9.698;2023-02-19T08:53:41;10.50;99.90
45535;DHT22;35892;48.798;9.698;2023-02-19T08:56:09;10.60;99.90
45535;DHT22;35892;48.798;9.698;2023-02-19T08:58:36;10.60;99.90
45535;DHT22;35892;48.798;9.698;2023-02-19T09:01:06;10.60;99.90
45535;DHT22;35892;48.798;9.698;2023-02-19T09:03:36;10.60;99.90
45535;DHT22;35892;48.798;9.698;2023-02-19T09:06:03;10.60;99.90
45535;DHT22;35892;48.798;9.698;2023-02-19T09:08:32;10.60;99.90
45535;DHT22;35892;48.798;9.698;2023-02-19T09:11:02;10.60;99.90
45535;DHT22;35892;48.798;9.698;2023-02-19T09:13:29;10.60;99.90
45535;DHT22;35892;48.798;9.698;2023-02-19T09:15:56;10.50;99.90
45535;DHT22;35892;48.798;9.698;2023-02-19T09:18:25;10.50;99.90
45535;DHT22;35892;48.798;9.698;2023-02-19T09:20:52;10.60;99.90
45535;DHT22;35892;48.798;9.698;2023-02-19T09:23:21;10.70;99.90
45535;DHT22;35892;48.798;9.698;2023-02-19T09:25:48;10.70;99.90
45535;DHT22;35892;48.798;9.698;2023-02-19T09:28:21;10.70;99.90
45535;DHT22;35892;48.798;9.698;2023-02-19T09:30:48;10.70;99.90
45535;DHT22;35892;48.798;9.698;2023-02-19T09:33:17;10.70;99.90
45535;DHT22;35892;48.798;9.698;2023-02-19T09:35:43;10.80;99.90
45535;DHT22;35892;48.798;9.698;2023-02-19T09:38:10;10.80;99.90
45535;DHT22;35892;48.798;9.698;2023-02-19T09:40:39;10.90;99.90
45535;DHT22;35892;48.798;9.698;2023-02-19T09:43:16;10.90;99.90
45535;DHT22;35892;48.798;9.698;2023-02-19T09:45:43;11.00;99.90
45535;DHT22;35892;48.798;9.698;2023-02-19T09:48:12;11.10;99.90
45535;DHT22;35892;48.798;9.698;2023-02-19T09:50:40;11.00;99.90
45535;DHT22;35892;48.798;9.698;2023-02-19T09:53:12;11.10;99.90
45535;DHT22;35892;48.798;9.698;2023-02-19T09:55:43;11.20;99.90
45535;DHT22;35892;48.798;9.698;2023-02-19T10:00:51;11.40;99.90
45535;DHT22;35892;48.798;9.698;2023-02-19T10:05:58;11.40;99.90
45535;DHT22;35892;48.798;9.698;2023-02-19T10:08:29;11.40;99.90
45535;DHT22;35892;48.798;9.698;2023-02-19T10:10:56;11.40;99.90
45535;DHT22;35892;48.798;9.698;2023-02-19T10:13:26;11.40;99.90
45535;DHT22;35892;48.798;9.698;2023-02-19T10:15:58;11.50;99.90
45535;DHT22;35892;48.798;9.698;2023-02-19T10:18:27;11.50;99.90
45535;DHT22;35892;48.798;9.698;2023-02-19T10:20:54;11.60;99.90
45535;DHT22;35892;48.798;9.698;2023-02-19T10:23:21;11.70;99.90
45535;DHT22;35892;48.798;9.698;2023-02-19T10:25:52;11.70;99.90
45535;DHT22;35892;48.798;9.698;2023-02-19T10:28:22;11.70;99.90
45535;DHT22;35892;48.798;9.698;2023-02-19T10:30:54;11.70;99.90
45535;DHT22;35892;48.798;9.698;2023-02-19T10:33:21;11.80;99.90
45535;DHT22;35892;48.798;9.698;2023-02-19T10:36:04;11.80;99.90
45535;DHT22;35892;48.798;9.698;2023-02-19T10:38:34;11.80;99.90
45535;DHT22;35892;48.798;9.698;2023-02-19T10:43:33;11.90;99.90
45535;DHT22;35892;48.798;9.698;2023-02-19T10:46:06;11.80;99.90
45535;DHT22;35892;48.798;9.698;2023-02-19T10:48:36;11.70;99.90
45535;DHT22;35892;48.798;9.698;2023-02-19T10:51:05;11.70;99.90
45535;DHT22;35892;48.798;9.698;2023-02-19T10:56:06;11.70;99.90
45535;DHT22;35892;48.798;9.698;2023-02-19T10:58:35;11.70;99.90
45535;DHT22;35892;48.798;9.698;2023-02-19T11:01:16;11.80;99.90
45535;DHT22;35892;48.798;9.698;2023-02-19T11:03:45;11.70;99.90
45535;DHT22;35892;48.798;9.698;2023-02-19T11:06:13;11.70;99.90
45535;DHT22;35892;48.798;9.698;2023-02-19T11:11:09;11.70;99.90
45535;DHT22;35892;48.798;9.698;2023-02-19T11:13:46;11.80;99.90
45535;DHT22;35892;48.798;9.698;2023-02-19T11:16:15;11.80;99.90
45535;DHT22;35892;48.798;9.698;2023-02-19T11:18:43;11.80;99.90
45535;DHT22;35892;48.798;9.698;2023-02-19T11:21:44;11.70;99.90
45535;DHT22;35892;48.798;9.698;2023-02-19T11:24:03;11.60;99.90
45535;DHT22;35892;48.798;9.698;2023-02-19T11:26:30;11.70;99.90
45535;DHT22;35892;48.798;9.698;2023-02-19T11:29:01;11.70;99.90
45535;DHT22;35892;48.798;9.698;2023-02-19T11:31:38;11.70;99.90
45535;DHT22;35892;48.798;9.698;2023-02-19T11:36:46;11.80;99.90
45535;DHT22;35892;48.798;9.698;2023-02-19T11:39:26;11.70;99.90
45535;DHT22;35892;48.798;9.698;2023-02-19T11:52:37;11.40;99.90
45535;DHT22;35892;48.798;9.698;2023-02-19T11:57:41;10.80;99.90
45535;DHT22;35892;48.798;9.698;2023-02-19T12:10:26;11.10;99.90
45535;DHT22;35892;48.798;9.698;2023-02-19T12:13:00;11.10;99.90
45535;DHT22;35892;48.798;9.698;2023-02-19T12:18:18;11.50;99.90
45535;DHT22;35892;48.798;9.698;2023-02-19T12:38:51;11.80;99.90
45535;DHT22;35892;48.798;9.698;2023-02-19T12:44:25;12.10;99.90
45535;DHT22;35892;48.798;9.698;2023-02-19T12:46:58;12.20;99.90
45535;DHT22;35892;48.798;9.698;2023-02-19T12:49:32;12.30;99.90
45535;DHT22;35892;48.798;9.698;2023-02-19T12:52:05;12.30;99.90
45535;DHT22;35892;48.798;9.698;2023-02-19T12:54:34;12.40;99.90
45535;DHT22;35892;48.798;9.698;2023-02-19T12:57:14;12.70;99.90
45535;DHT22;35892;48.798;9.698;2023-02-19T13:05:01;12.60;99.90
45535;DHT22;35892;48.798;9.698;2023-02-19T13:07:32;12.50;99.90
45535;DHT22;35892;48.798;9.698;2023-02-19T13:10:44;12.50;99.90
45535;DHT22;35892;48.798;9.698;2023-02-19T13:12:53;12.20;99.90
45535;DHT22;35892;48.798;9.698;2023-02-19T13:15:36;12.00;99.90
45535;DHT22;35892;48.798;9.698;2023-02-19T13:18:06;11.90;99.90
45535;DHT22;35892;48.798;9.698;2023-02-19T13:20:38;11.90;99.90
45535;DHT22;35892;48.798;9.698;2023-02-19T13:36:49;11.60;99.90
45535;DHT22;35892;48.798;9.698;2023-02-19T13:39:21;11.60;99.90
45535;DHT22;35892;48.798;9.698;2023-02-19T13:41:50;11.70;99.90
45535;DHT22;35892;48.798;9.698;2023-02-19T13:44:18;11.70;99.90
45535;DHT22;35892;48.798;9.698;2023-02-19T13:46:46;11.70;99.90
45535;DHT22;35892;48.798;9.698;2023-02-19T13:54:20;11.30;99.90
45535;DHT22;35892;48.798;9.698;2023-02-19T13:57:18;11.20;99.90
45535;DHT22;35892;48.798;9.698;2023-02-19T13:59:37;11.10;99.90
45535;DHT22;35892;48.798;9.698;2023-02-19T14:02:08;11.00;99.90
45535;DHT22;35892;48.798;9.698;2023-02-19T14:09:59;10.60;99.90
45535;DHT22;35892;48.798;9.698;2023-02-19T14:12:31;10.60;99.90
45535;DHT22;35892;48.798;9.698;2023-02-19T14:15:36;10.50;99.90
45535;DHT22;35892;48.798;9.698;2023-02-19T14:17:44;10.50;99.90
45535;DHT22;35892;48.798;9.698;2023-02-19T14:25:26;10.60;99.90
45535;DHT22;35892;48.798;9.698;2023-02-19T14:28:00;10.70;99.90
45535;DHT22;35892;48.798;9.698;2023-02-19T14:30:28;10.70;99.90
45535;DHT22;35892;48.798;9.698;2023-02-19T14:32:56;10.70;99.90
45535;DHT22;35892;48.798;9.698;2023-02-19T14:35:41;10.70;99.90
45535;DHT22;35892;48.798;9.698;2023-02-19T14:38:15;10.60;99.90
45535;DHT22;35892;48.798;9.698;2023-02-19T14:40:43;10.60;99.90
45535;DHT22;35892;48.798;9.698;2023-02-19T14:43:14;10.50;99.90
45535;DHT22;35892;48.798;9.698;2023-02-19T14:46:03;10.60;99.90
45535;DHT22;35892;48.798;9.698;2023-02-19T14:48:38;10.60;99.90
45535;DHT22;35892;48.798;9.698;2023-02-19T14:51:13;10.50;99.90
45535;DHT22;35892;48.798;9.698;2023-02-19T14:53:40;10.60;99.90
45535;DHT22;35892;48.798;9.698;2023-02-19T14:56:25;10.70;99.90
45535;DHT22;35892;48.798;9.698;2023-02-19T15:01:37;10.70;99.90
45535;DHT22;35892;48.798;9.698;2023-02-19T15:04:04;10.70;99.90
45535;DHT22;35892;48.798;9.698;2023-02-19T15:06:32;10.70;99.90
45535;DHT22;35892;48.798;9.698;2023-02-19T15:09:01;10.70;99.90
45535;DHT22;35892;48.798;9.698;2023-02-19T15:11:29;10.70;99.90
45535;DHT22;35892;48.798;9.698;2023-02-19T15:13:58;10.60;99.90
45535;DHT22;35892;48.798;9.698;2023-02-19T15:16:28;10.60;99.90
45535;DHT22;35892;48.798;9.698;2023-02-19T15:18:58;10.60;99.90
45535;DHT22;35892;48.798;9.698;2023-02-19T15:21:26;10.60;99.90
45535;DHT22;35892;48.798;9.698;2023-02-19T15:23:57;10.60;99.90
45535;DHT22;35892;48.798;9.698;2023-02-19T15:26:34;10.70;99.90
45535;DHT22;35892;48.798;9.698;2023-02-19T15:29:04;10.70;99.90
45535;DHT22;35892;48.798;9.698;2023-02-19T15:31:34;10.80;99.90
45535;DHT22;35892;48.798;9.698;2023-02-19T15:34:03;10.80;99.90
45535;DHT22;35892;48.798;9.698;2023-02-19T15:36:31;10.80;99.90
45535;DHT22;35892;48.798;9.698;2023-02-19T15:39:00;10.70;99.90
45535;DHT22;35892;48.798;9.698;2023-02-19T15:41:28;10.70;99.90
45535;DHT22;35892;48.798;9.698;2023-02-19T15:46:23;10.70;99.90
45535;DHT22;35892;48.798;9.698;2023-02-19T15:49:02;10.70;99.90
45535;DHT22;35892;48.798;9.698;2023-02-19T15:54:06;10.60;99.90
45535;DHT22;35892;48.798;9.698;2023-02-19T15:56:37;10.70;99.90
45535;DHT22;35892;48.798;9.698;2023-02-19T16:02:10;10.60;99.90
45535;DHT22;35892;48.798;9.698;2023-02-19T16:04:42;10.50;99.90
45535;DHT22;35892;48.798;9.698;2023-02-19T16:07:25;10.50;99.90
45535;DHT22;35892;48.798;9.698;2023-02-19T16:12:37;10.50;99.90
45535;DHT22;35892;48.798;9.698;2023-02-19T16:15:11;10.50;99.90
45535;DHT22;35892;48.798;9.698;2023-02-19T16:17:40;10.50;99.90
45535;DHT22;35892;48.798;9.698;2023-02-19T16:20:15;10.60;99.90
45535;DHT22;35892;48.798;9.698;2023-02-19T16:22:44;10.50;99.90
45535;DHT22;35892;48.798;9.698;2023-02-19T16:25:28;10.40;99.90
45535;DHT22;35892;48.798;9.698;2023-02-19T16:27:56;10.40;99.90
45535;DHT22;35892;48.798;9.698;2023-02-19T16:30:29;10.40;99.90
45535;DHT22;35892;48.798;9.698;2023-02-19T16:35:41;10.40;99.90
45535;DHT22;35892;48.798;9.698;2023-02-19T16:38:11;10.40;99.90
45535;DHT22;35892;48.798;9.698;2023-02-19T16:43:27;10.30;99.90
45535;DHT22;35892;48.798;9.698;2023-02-19T16:45:56;10.30;99.90
45535;DHT22;35892;48.798;9.698;2023-02-19T16:48:23;10.30;99.90
45535;DHT22;35892;48.798;9.698;2023-02-19T16:50:53;10.30;99.90
45535;DHT22;35892;48.798;9.698;2023-02-19T16:53:20;10.30;99.90
45535;DHT22;35892;48.798;9.698;2023-02-19T16:55:47;10.40;99.90
45535;DHT22;35892;48.798;9.698;2023-02-19T16:58:14;10.40;99.90
45535;DHT22;35892;48.798;9.698;2023-02-19T17:00:43;10.40;99.90
45535;DHT22;35892;48.798;9.698;2023-02-19T17:03:10;10.40;99.90
45535;DHT22;35892;48.798;9.698;2023-02-19T17:05:40;10.30;99.90
45535;DHT22;35892;48.798;9.698;2023-02-19T17:10:48;10.30;99.90
45535;DHT22;35892;48.798;9.698;2023-02-19T17:13:15;10.30;99.90
45535;DHT22;35892;48.798;9.698;2023-02-19T17:15:41;10.30;99.90
45535;DHT22;35892;48.798;9.698;2023-02-19T17:18:10;10.30;99.90
45535;DHT22;35892;48.798;9.698;2023-02-19T17:20:39;10.30;99.90
45535;DHT22;35892;48.798;9.698;2023-02-19T17:23:07;10.20;99.90
45535;DHT22;35892;48.798;9.698;2023-02-19T17:25:34;10.20;99.90
45535;DHT22;35892;48.798;9.698;2023-02-19T17:28:00;10.20;99.90
45535;DHT22;35892;48.798;9.698;2023-02-19T17:30:28;10.10;99.90
45535;DHT22;35892;48.798;9.698;2023-02-19T17:32:58;10.10;99.90
45535;DHT22;35892;48.798;9.698;2023-02-19T17:35:24;10.20;99.90
45535;DHT22;35892;48.798;9.698;2023-02-19T17:37:51;10.30;99.90
45535;DHT22;35892;48.798;9.698;2023-02-19T17:40:24;10.30;99.90
45535;DHT22;35892;48.798;9.698;2023-02-19T17:42:58;10.40;99.90
45535;DHT22;35892;48.798;9.698;2023-02-19T17:45:25;10.40;99.90
45535;DHT22;35892;48.798;9.698;2023-02-19T17:47:52;10.40;99.90
45535;DHT22;35892;48.798;9.698;2023-02-19T17:50:24;10.30;99.90
45535;DHT22;35892;48.798;9.698;2023-02-19T17:52:51;10.30;99.90
45535;DHT22;35892;48.798;9.698;2023-02-19T17:55:18;10.20;99.90
45535;DHT22;35892;48.798;9.698;2023-02-19T17:57:48;10.20;99.90
45535;DHT22;35892;48.798;9.698;2023-02-19T18:00:17;10.20;99.90
45535;DHT22;35892;48.798;9.698;2023-02-19T18:02:44;10.20;99.90
45535;DHT22;35892;48.798;9.698;2023-02-19T18:05:14;10.10;99.90
45535;DHT22;35892;48.798;9.698;2023-02-19T18:07:43;10.10;99.90
45535;DHT22;35892;48.798;9.698;2023-02-19T18:10:10;10.10;99.90
45535;DHT22;35892;48.798;9.698;2023-02-19T18:12:37;10.00;99.90
45535;DHT22;35892;48.798;9.698;2023-02-19T18:15:05;10.00;99.90
45535;DHT22;35892;48.798;9.698;2023-02-19T18:17:33;10.00;99.90
45535;DHT22;35892;48.798;9.698;2023-02-19T18:20:02;10.00;99.90
45535;DHT22;35892;48.798;9.698;2023-02-19T18:22:30;10.00;99.90
45535;DHT22;35892;48.798;9.698;2023-02-19T18:24:59;10.10;99.90
45535;DHT22;35892;48.798;9.698;2023-02-19T18:27:25;10.20;99.90
45535;DHT22;35892;48.798;9.698;2023-02-19T18:29:54;10.20;99.90
45535;DHT22;35892;48.798;9.698;2023-02-19T18:32:22;10.40;99.90